sensor_id;sensor_type;location;lat;lon;timestamp;P1;durP1;ratioP1;P2;durP2;ratioP2
76296;SDS011;65104;52.994;6.552;2023-02-05T00:01:06;10.45;;;5.63;;
76296;SDS011;65104;52.994;6.552;2023-02-05T00:03:31;9.02;;;6.07;;
76296;SDS011;65104;52.994;6.552;2023-02-05T00:05:59;11.00;;;5.45;;
76296;SDS011;65104;52.994;6.552;2023-02-05T00:08:25;11.50;;;6.15;;
76296;SDS011;65104;52.994;6.552;2023-02-05T00:10:51;10.95;;;6.13;;
76296;SDS011;65104;52.994;6.552;2023-02-05T00:13:17;9.75;;;5.80;;
76296;SDS011;65104;52.994;6.552;2023-02-05T00:15:43;12.70;;;5.70;;
76296;SDS011;65104;52.994;6.552;2023-02-05T00:18:09;10.45;;;6.35;;
76296;SDS011;65104;52.994;6.552;2023-02-05T00:20:34;12.38;;;6.18;;
76296;SDS011;65104;52.994;6.552;2023-02-05T00:23:00;8.75;;;5.25;;
76296;SDS011;65104;52.994;6.552;2023-02-05T00:25:26;8.38;;;5.25;;
76296;SDS011;65104;52.994;6.552;2023-02-05T00:27:51;10.55;;;5.28;;
76296;SDS011;65104;52.994;6.552;2023-02-05T00:30:17;10.23;;;5.32;;
76296;SDS011;65104;52.994;6.552;2023-02-05T00:32:43;11.02;;;6.18;;
76296;SDS011;65104;52.994;6.552;2023-02-05T00:35:08;7.82;;;5.57;;
76296;SDS011;65104;52.994;6.552;2023-02-05T00:37:33;12.07;;;6.18;;
76296;SDS011;65104;52.994;6.552;2023-02-05T00:39:59;12.65;;;6.25;;
76296;SDS011;65104;52.994;6.552;2023-02-05T00:42:24;14.32;;;6.25;;
76296;SDS011;65104;52.994;6.552;2023-02-05T00:44:49;17.15;;;6.68;;
76296;SDS011;65104;52.994;6.552;2023-02-05T00:47:15;10.68;;;5.38;;
76296;SDS011;65104;52.994;6.552;2023-02-05T00:49:40;9.40;;;5.70;;
76296;SDS011;65104;52.994;6.552;2023-02-05T00:52:05;11.75;;;5.55;;
76296;SDS011;65104;52.994;6.552;2023-02-05T00:54:31;14.10;;;6.13;;
76296;SDS011;65104;52.994;6.552;2023-02-05T00:56:56;12.40;;;6.28;;
76296;SDS011;65104;52.994;6.552;2023-02-05T00:59:22;11.00;;;6.22;;
76296;SDS011;65104;52.994;6.552;2023-02-05T01:01:47;11.73;;;6.25;;
76296;SDS011;65104;52.994;6.552;2023-02-05T01:04:12;17.02;;;7.25;;
76296;SDS011;65104;52.994;6.552;2023-02-05T01:06:38;12.15;;;6.65;;
76296;SDS011;65104;52.994;6.552;2023-02-05T01:09:03;11.18;;;5.80;;
76296;SDS011;65104;52.994;6.552;2023-02-05T01:11:29;13.10;;;6.28;;
76296;SDS011;65104;52.994;6.552;2023-02-05T01:13:54;12.32;;;7.32;;
76296;SDS011;65104;52.994;6.552;2023-02-05T01:16:20;12.93;;;5.80;;
76296;SDS011;65104;52.994;6.552;2023-02-05T01:18:45;11.93;;;6.25;;
76296;SDS011;65104;52.994;6.552;2023-02-05T01:21:11;14.15;;;6.28;;
76296;SDS011;65104;52.994;6.552;2023-02-05T01:23:36;12.70;;;7.13;;
76296;SDS011;65104;52.994;6.552;2023-02-05T01:26:02;11.27;;;6.57;;
76296;SDS011;65104;52.994;6.552;2023-02-05T01:28:27;12.27;;;6.53;;
76296;SDS011;65104;52.994;6.552;2023-02-05T01:30:53;14.00;;;6.40;;
76296;SDS011;65104;52.994;6.552;2023-02-05T01:33:18;12.77;;;6.28;;
76296;SDS011;65104;52.994;6.552;2023-02-05T01:35:44;19.88;;;7.40;;
76296;SDS011;65104;52.994;6.552;2023-02-05T01:38:10;12.13;;;6.47;;
76296;SDS011;65104;52.994;6.552;2023-02-05T01:40:36;13.77;;;7.05;;
76296;SDS011;65104;52.994;6.552;2023-02-05T01:43:01;13.40;;;6.70;;
76296;SDS011;65104;52.994;6.552;2023-02-05T01:48:07;15.48;;;7.13;;
76296;SDS011;65104;52.994;6.552;2023-02-05T01:51:16;17.85;;;7.18;;
76296;SDS011;65104;52.994;6.552;2023-02-05T01:53:26;12.32;;;7.15;;
76296;SDS011;65104;52.994;6.552;2023-02-05T01:55:59;15.05;;;7.47;;
76296;SDS011;65104;52.994;6.552;2023-02-05T01:58:30;17.48;;;7.75;;
76296;SDS011;65104;52.994;6.552;2023-02-05T02:00:57;14.15;;;7.63;;
76296;SDS011;65104;52.994;6.552;2023-02-05T02:03:23;14.35;;;7.05;;
76296;SDS011;65104;52.994;6.552;2023-02-05T02:05:51;13.57;;;7.30;;
76296;SDS011;65104;52.994;6.552;2023-02-05T02:08:17;16.60;;;7.95;;
76296;SDS011;65104;52.994;6.552;2023-02-05T02:10:43;19.48;;;7.72;;
76296;SDS011;65104;52.994;6.552;2023-02-05T02:13:10;17.20;;;8.32;;
76296;SDS011;65104;52.994;6.552;2023-02-05T02:15:37;16.17;;;7.15;;
76296;SDS011;65104;52.994;6.552;2023-02-05T02:18:03;16.73;;;8.57;;
76296;SDS011;65104;52.994;6.552;2023-02-05T02:20:51;17.55;;;7.60;;
76296;SDS011;65104;52.994;6.552;2023-02-05T02:29:13;19.83;;;9.23;;
76296;SDS011;65104;52.994;6.552;2023-02-05T02:31:50;22.65;;;9.05;;
76296;SDS011;65104;52.994;6.552;2023-02-05T02:34:26;23.92;;;10.15;;
76296;SDS011;65104;52.994;6.552;2023-02-05T02:37:06;21.77;;;10.45;;
76296;SDS011;65104;52.994;6.552;2023-02-05T02:39:40;18.08;;;9.00;;
76296;SDS011;65104;52.994;6.552;2023-02-05T02:42:14;20.08;;;9.32;;
76296;SDS011;65104;52.994;6.552;2023-02-05T02:44:47;21.27;;;8.73;;
76296;SDS011;65104;52.994;6.552;2023-02-05T02:47:18;19.15;;;9.90;;
76296;SDS011;65104;52.994;6.552;2023-02-05T02:49:56;23.10;;;10.00;;
76296;SDS011;65104;52.994;6.552;2023-02-05T02:52:24;26.45;;;11.20;;
76296;SDS011;65104;52.994;6.552;2023-02-05T02:54:54;23.13;;;10.10;;
76296;SDS011;65104;52.994;6.552;2023-02-05T02:57:24;22.27;;;9.63;;
76296;SDS011;65104;52.994;6.552;2023-02-05T02:59:54;19.88;;;9.98;;
76296;SDS011;65104;52.994;6.552;2023-02-05T03:02:23;22.25;;;9.68;;
76296;SDS011;65104;52.994;6.552;2023-02-05T03:04:56;18.58;;;10.57;;
76296;SDS011;65104;52.994;6.552;2023-02-05T03:07:37;21.20;;;10.77;;
76296;SDS011;65104;52.994;6.552;2023-02-05T03:12:40;19.02;;;10.30;;
76296;SDS011;65104;52.994;6.552;2023-02-05T03:15:06;21.98;;;10.73;;
76296;SDS011;65104;52.994;6.552;2023-02-05T03:17:33;29.23;;;11.75;;
76296;SDS011;65104;52.994;6.552;2023-02-05T03:20:04;27.85;;;11.57;;
76296;SDS011;65104;52.994;6.552;2023-02-05T03:22:35;26.98;;;11.52;;
76296;SDS011;65104;52.994;6.552;2023-02-05T03:25:00;28.50;;;12.15;;
76296;SDS011;65104;52.994;6.552;2023-02-05T03:27:26;28.60;;;13.00;;
76296;SDS011;65104;52.994;6.552;2023-02-05T03:29:52;30.13;;;14.45;;
76296;SDS011;65104;52.994;6.552;2023-02-05T03:45:37;26.35;;;11.63;;
76296;SDS011;65104;52.994;6.552;2023-02-05T03:56:28;35.05;;;11.65;;
76296;SDS011;65104;52.994;6.552;2023-02-05T03:59:01;38.10;;;13.27;;
76296;SDS011;65104;52.994;6.552;2023-02-05T04:01:28;40.60;;;12.93;;
76296;SDS011;65104;52.994;6.552;2023-02-05T04:03:54;31.33;;;13.75;;
76296;SDS011;65104;52.994;6.552;2023-02-05T04:06:20;29.38;;;12.55;;
76296;SDS011;65104;52.994;6.552;2023-02-05T04:08:45;31.17;;;12.57;;
76296;SDS011;65104;52.994;6.552;2023-02-05T04:11:10;35.67;;;14.48;;
76296;SDS011;65104;52.994;6.552;2023-02-05T04:13:36;37.58;;;13.25;;
76296;SDS011;65104;52.994;6.552;2023-02-05T04:16:02;31.70;;;12.57;;
76296;SDS011;65104;52.994;6.552;2023-02-05T04:18:27;30.95;;;12.38;;
76296;SDS011;65104;52.994;6.552;2023-02-05T04:20:53;35.78;;;14.20;;
76296;SDS011;65104;52.994;6.552;2023-02-05T04:23:18;30.67;;;13.38;;
76296;SDS011;65104;52.994;6.552;2023-02-05T04:25:43;31.25;;;12.48;;
76296;SDS011;65104;52.994;6.552;2023-02-05T04:28:09;36.83;;;14.07;;
76296;SDS011;65104;52.994;6.552;2023-02-05T04:30:35;32.35;;;12.95;;
76296;SDS011;65104;52.994;6.552;2023-02-05T04:33:00;41.10;;;14.13;;
76296;SDS011;65104;52.994;6.552;2023-02-05T04:35:26;37.72;;;13.30;;
76296;SDS011;65104;52.994;6.552;2023-02-05T04:37:51;37.28;;;13.57;;
76296;SDS011;65104;52.994;6.552;2023-02-05T04:40:16;30.42;;;13.25;;
76296;SDS011;65104;52.994;6.552;2023-02-05T04:42:42;29.48;;;13.23;;
76296;SDS011;65104;52.994;6.552;2023-02-05T04:45:08;33.72;;;13.05;;
76296;SDS011;65104;52.994;6.552;2023-02-05T04:47:33;34.60;;;12.50;;
76296;SDS011;65104;52.994;6.552;2023-02-05T04:49:59;34.38;;;13.50;;
76296;SDS011;65104;52.994;6.552;2023-02-05T04:52:25;32.08;;;12.00;;
76296;SDS011;65104;52.994;6.552;2023-02-05T04:54:50;33.50;;;12.50;;
76296;SDS011;65104;52.994;6.552;2023-02-05T04:57:16;31.00;;;13.48;;
76296;SDS011;65104;52.994;6.552;2023-02-05T04:59:41;30.92;;;12.52;;
76296;SDS011;65104;52.994;6.552;2023-02-05T05:02:07;27.88;;;12.65;;
76296;SDS011;65104;52.994;6.552;2023-02-05T05:04:32;30.58;;;12.00;;
76296;SDS011;65104;52.994;6.552;2023-02-05T05:06:58;27.80;;;10.73;;
76296;SDS011;65104;52.994;6.552;2023-02-05T05:09:23;30.48;;;12.32;;
76296;SDS011;65104;52.994;6.552;2023-02-05T05:11:52;28.42;;;11.68;;
76296;SDS011;65104;52.994;6.552;2023-02-05T05:14:19;27.48;;;12.48;;
76296;SDS011;65104;52.994;6.552;2023-02-05T05:16:44;27.73;;;10.32;;
76296;SDS011;65104;52.994;6.552;2023-02-05T05:19:10;25.52;;;10.23;;
76296;SDS011;65104;52.994;6.552;2023-02-05T05:21:35;25.17;;;9.38;;
76296;SDS011;65104;52.994;6.552;2023-02-05T05:24:01;22.83;;;8.52;;
76296;SDS011;65104;52.994;6.552;2023-02-05T05:26:26;24.23;;;10.02;;
76296;SDS011;65104;52.994;6.552;2023-02-05T05:28:53;18.80;;;8.13;;
76296;SDS011;65104;52.994;6.552;2023-02-05T05:31:19;21.70;;;9.43;;
76296;SDS011;65104;52.994;6.552;2023-02-05T05:33:45;17.45;;;8.02;;
76296;SDS011;65104;52.994;6.552;2023-02-05T05:36:11;23.90;;;8.55;;
76296;SDS011;65104;52.994;6.552;2023-02-05T05:38:37;18.08;;;8.68;;
76296;SDS011;65104;52.994;6.552;2023-02-05T05:41:03;19.45;;;7.82;;
76296;SDS011;65104;52.994;6.552;2023-02-05T05:43:48;19.40;;;7.68;;
76296;SDS011;65104;52.994;6.552;2023-02-05T05:46:14;14.82;;;5.20;;
76296;SDS011;65104;52.994;6.552;2023-02-05T05:48:56;8.80;;;4.68;;
76296;SDS011;65104;52.994;6.552;2023-02-05T05:51:24;7.28;;;3.28;;
76296;SDS011;65104;52.994;6.552;2023-02-05T05:53:51;8.10;;;1.85;;
76296;SDS011;65104;52.994;6.552;2023-02-05T05:56:17;6.68;;;1.38;;
76296;SDS011;65104;52.994;6.552;2023-02-05T05:58:43;7.72;;;1.48;;
76296;SDS011;65104;52.994;6.552;2023-02-05T06:01:09;9.73;;;2.40;;
76296;SDS011;65104;52.994;6.552;2023-02-05T06:03:36;8.75;;;1.35;;
76296;SDS011;65104;52.994;6.552;2023-02-05T06:06:02;4.78;;;1.40;;
76296;SDS011;65104;52.994;6.552;2023-02-05T06:08:29;6.15;;;1.30;;
76296;SDS011;65104;52.994;6.552;2023-02-05T06:10:55;6.32;;;1.40;;
76296;SDS011;65104;52.994;6.552;2023-02-05T06:13:21;8.75;;;1.27;;
76296;SDS011;65104;52.994;6.552;2023-02-05T06:15:47;6.38;;;1.02;;
76296;SDS011;65104;52.994;6.552;2023-02-05T06:18:13;7.28;;;1.05;;
76296;SDS011;65104;52.994;6.552;2023-02-05T06:20:42;5.13;;;0.80;;
76296;SDS011;65104;52.994;6.552;2023-02-05T06:23:07;4.68;;;0.57;;
76296;SDS011;65104;52.994;6.552;2023-02-05T06:25:33;5.35;;;1.30;;
76296;SDS011;65104;52.994;6.552;2023-02-05T06:27:58;10.30;;;0.95;;
76296;SDS011;65104;52.994;6.552;2023-02-05T06:30:24;4.70;;;0.88;;
76296;SDS011;65104;52.994;6.552;2023-02-05T06:32:49;4.25;;;0.63;;
76296;SDS011;65104;52.994;6.552;2023-02-05T06:35:14;4.47;;;0.75;;
76296;SDS011;65104;52.994;6.552;2023-02-05T06:37:40;4.32;;;1.00;;
76296;SDS011;65104;52.994;6.552;2023-02-05T06:40:06;2.55;;;1.15;;
76296;SDS011;65104;52.994;6.552;2023-02-05T06:42:31;1.52;;;0.50;;
76296;SDS011;65104;52.994;6.552;2023-02-05T06:44:57;5.03;;;0.90;;
76296;SDS011;65104;52.994;6.552;2023-02-05T06:47:22;4.30;;;1.13;;
76296;SDS011;65104;52.994;6.552;2023-02-05T06:49:47;4.72;;;1.17;;
76296;SDS011;65104;52.994;6.552;2023-02-05T06:52:13;5.30;;;2.08;;
76296;SDS011;65104;52.994;6.552;2023-02-05T06:54:38;10.77;;;0.95;;
76296;SDS011;65104;52.994;6.552;2023-02-05T06:57:04;3.70;;;0.70;;
76296;SDS011;65104;52.994;6.552;2023-02-05T06:59:29;3.83;;;0.68;;
76296;SDS011;65104;52.994;6.552;2023-02-05T07:01:54;9.00;;;1.15;;
76296;SDS011;65104;52.994;6.552;2023-02-05T07:04:20;2.63;;;0.82;;
76296;SDS011;65104;52.994;6.552;2023-02-05T07:06:45;3.55;;;0.95;;
76296;SDS011;65104;52.994;6.552;2023-02-05T07:09:11;9.20;;;0.70;;
76296;SDS011;65104;52.994;6.552;2023-02-05T07:11:36;5.75;;;1.10;;
76296;SDS011;65104;52.994;6.552;2023-02-05T07:14:02;3.83;;;0.80;;
76296;SDS011;65104;52.994;6.552;2023-02-05T07:16:28;7.05;;;1.05;;
76296;SDS011;65104;52.994;6.552;2023-02-05T07:18:54;6.85;;;1.30;;
76296;SDS011;65104;52.994;6.552;2023-02-05T07:21:21;3.75;;;0.82;;
76296;SDS011;65104;52.994;6.552;2023-02-05T07:23:46;10.60;;;0.98;;
76296;SDS011;65104;52.994;6.552;2023-02-05T07:26:13;3.35;;;1.00;;
76296;SDS011;65104;52.994;6.552;2023-02-05T07:28:40;7.57;;;1.25;;
76296;SDS011;65104;52.994;6.552;2023-02-05T07:31:07;2.92;;;0.70;;
76296;SDS011;65104;52.994;6.552;2023-02-05T07:33:34;4.47;;;1.00;;
76296;SDS011;65104;52.994;6.552;2023-02-05T07:36:06;5.03;;;1.27;;
76296;SDS011;65104;52.994;6.552;2023-02-05T07:38:33;5.97;;;1.20;;
76296;SDS011;65104;52.994;6.552;2023-02-05T07:41:07;3.78;;;0.75;;
76296;SDS011;65104;52.994;6.552;2023-02-05T07:43:34;4.72;;;0.70;;
76296;SDS011;65104;52.994;6.552;2023-02-05T07:46:01;7.35;;;1.10;;
76296;SDS011;65104;52.994;6.552;2023-02-05T07:48:28;5.40;;;1.10;;
76296;SDS011;65104;52.994;6.552;2023-02-05T07:50:54;4.30;;;1.15;;
76296;SDS011;65104;52.994;6.552;2023-02-05T07:53:19;3.53;;;1.45;;
76296;SDS011;65104;52.994;6.552;2023-02-05T07:55:45;6.30;;;0.77;;
76296;SDS011;65104;52.994;6.552;2023-02-05T07:58:11;6.63;;;0.98;;
76296;SDS011;65104;52.994;6.552;2023-02-05T08:00:37;3.92;;;0.65;;
76296;SDS011;65104;52.994;6.552;2023-02-05T08:03:02;5.65;;;1.08;;
76296;SDS011;65104;52.994;6.552;2023-02-05T08:05:28;4.60;;;1.20;;
76296;SDS011;65104;52.994;6.552;2023-02-05T08:07:53;8.88;;;1.02;;
76296;SDS011;65104;52.994;6.552;2023-02-05T08:10:18;12.52;;;1.55;;
76296;SDS011;65104;52.994;6.552;2023-02-05T08:12:44;7.50;;;0.95;;
76296;SDS011;65104;52.994;6.552;2023-02-05T08:15:10;6.75;;;1.38;;
76296;SDS011;65104;52.994;6.552;2023-02-05T08:17:36;5.75;;;1.15;;
76296;SDS011;65104;52.994;6.552;2023-02-05T08:20:02;3.95;;;0.73;;
76296;SDS011;65104;52.994;6.552;2023-02-05T08:22:32;6.70;;;1.08;;
76296;SDS011;65104;52.994;6.552;2023-02-05T08:27:24;7.22;;;1.83;;
76296;SDS011;65104;52.994;6.552;2023-02-05T08:29:50;4.38;;;1.23;;
76296;SDS011;65104;52.994;6.552;2023-02-05T08:32:15;10.30;;;1.92;;
76296;SDS011;65104;52.994;6.552;2023-02-05T08:34:41;6.45;;;1.20;;
76296;SDS011;65104;52.994;6.552;2023-02-05T08:37:06;4.57;;;0.50;;
76296;SDS011;65104;52.994;6.552;2023-02-05T08:39:32;8.90;;;1.35;;
76296;SDS011;65104;52.994;6.552;2023-02-05T08:41:57;4.75;;;0.75;;
76296;SDS011;65104;52.994;6.552;2023-02-05T08:44:23;4.80;;;0.82;;
76296;SDS011;65104;52.994;6.552;2023-02-05T08:46:48;8.18;;;1.60;;
76296;SDS011;65104;52.994;6.552;2023-02-05T08:49:14;7.18;;;0.98;;
76296;SDS011;65104;52.994;6.552;2023-02-05T08:51:41;6.70;;;1.27;;
76296;SDS011;65104;52.994;6.552;2023-02-05T08:54:07;7.15;;;1.60;;
76296;SDS011;65104;52.994;6.552;2023-02-05T08:56:37;13.18;;;1.80;;
76296;SDS011;65104;52.994;6.552;2023-02-05T08:59:03;12.48;;;1.90;;
76296;SDS011;65104;52.994;6.552;2023-02-05T09:01:29;10.13;;;1.58;;
76296;SDS011;65104;52.994;6.552;2023-02-05T09:03:54;7.07;;;1.40;;
76296;SDS011;65104;52.994;6.552;2023-02-05T09:06:19;17.83;;;2.30;;
76296;SDS011;65104;52.994;6.552;2023-02-05T09:08:45;13.77;;;1.92;;
76296;SDS011;65104;52.994;6.552;2023-02-05T09:11:10;6.47;;;1.30;;
76296;SDS011;65104;52.994;6.552;2023-02-05T09:13:37;7.85;;;2.28;;
76296;SDS011;65104;52.994;6.552;2023-02-05T09:16:03;7.97;;;1.88;;
76296;SDS011;65104;52.994;6.552;2023-02-05T09:18:28;6.22;;;1.50;;
76296;SDS011;65104;52.994;6.552;2023-02-05T09:20:54;9.93;;;1.52;;
76296;SDS011;65104;52.994;6.552;2023-02-05T09:23:19;7.10;;;2.08;;
76296;SDS011;65104;52.994;6.552;2023-02-05T09:25:45;8.95;;;1.65;;
76296;SDS011;65104;52.994;6.552;2023-02-05T09:28:12;9.30;;;1.52;;
76296;SDS011;65104;52.994;6.552;2023-02-05T09:30:39;12.05;;;1.55;;
76296;SDS011;65104;52.994;6.552;2023-02-05T09:35:33;5.88;;;1.50;;
76296;SDS011;65104;52.994;6.552;2023-02-05T09:37:59;10.65;;;1.52;;
76296;SDS011;65104;52.994;6.552;2023-02-05T09:40:27;7.10;;;1.95;;
76296;SDS011;65104;52.994;6.552;2023-02-05T09:43:02;2.63;;;0.98;;
76296;SDS011;65104;52.994;6.552;2023-02-05T09:45:47;6.72;;;1.02;;
76296;SDS011;65104;52.994;6.552;2023-02-05T09:51:15;6.22;;;1.42;;
76296;SDS011;65104;52.994;6.552;2023-02-05T09:53:44;5.20;;;1.30;;
76296;SDS011;65104;52.994;6.552;2023-02-05T09:56:14;7.15;;;1.02;;
76296;SDS011;65104;52.994;6.552;2023-02-05T09:58:42;6.95;;;1.33;;
76296;SDS011;65104;52.994;6.552;2023-02-05T10:03:56;4.72;;;1.15;;
76296;SDS011;65104;52.994;6.552;2023-02-05T10:12:02;10.25;;;1.45;;
76296;SDS011;65104;52.994;6.552;2023-02-05T10:31:43;18.27;;;9.93;;
76296;SDS011;65104;52.994;6.552;2023-02-05T10:36:53;15.98;;;3.72;;
76296;SDS011;65104;52.994;6.552;2023-02-05T10:39:20;15.80;;;2.88;;
76296;SDS011;65104;52.994;6.552;2023-02-05T10:42:02;17.10;;;2.40;;
76296;SDS011;65104;52.994;6.552;2023-02-05T10:44:46;10.45;;;2.20;;
76296;SDS011;65104;52.994;6.552;2023-02-05T10:47:17;13.95;;;2.53;;
76296;SDS011;65104;52.994;6.552;2023-02-05T10:50:01;12.07;;;1.60;;
76296;SDS011;65104;52.994;6.552;2023-02-05T10:52:31;8.65;;;1.33;;
76296;SDS011;65104;52.994;6.552;2023-02-05T10:54:57;5.45;;;1.40;;
76296;SDS011;65104;52.994;6.552;2023-02-05T10:57:22;9.35;;;1.50;;
76296;SDS011;65104;52.994;6.552;2023-02-05T10:59:55;7.38;;;1.65;;
76296;SDS011;65104;52.994;6.552;2023-02-05T11:02:35;13.13;;;1.92;;
76296;SDS011;65104;52.994;6.552;2023-02-05T11:05:05;10.30;;;1.85;;
76296;SDS011;65104;52.994;6.552;2023-02-05T11:07:48;7.95;;;1.60;;
76296;SDS011;65104;52.994;6.552;2023-02-05T11:10:17;10.90;;;1.80;;
76296;SDS011;65104;52.994;6.552;2023-02-05T11:12:49;13.82;;;2.15;;
76296;SDS011;65104;52.994;6.552;2023-02-05T11:15:17;11.70;;;2.15;;
76296;SDS011;65104;52.994;6.552;2023-02-05T11:17:51;9.57;;;2.03;;
76296;SDS011;65104;52.994;6.552;2023-02-05T11:20:36;12.40;;;2.30;;
76296;SDS011;65104;52.994;6.552;2023-02-05T11:23:07;14.30;;;2.10;;
76296;SDS011;65104;52.994;6.552;2023-02-05T11:25:33;11.50;;;2.08;;
76296;SDS011;65104;52.994;6.552;2023-02-05T11:27:59;14.65;;;2.38;;
76296;SDS011;65104;52.994;6.552;2023-02-05T11:38:24;15.45;;;2.25;;
76296;SDS011;65104;52.994;6.552;2023-02-05T11:40:55;13.10;;;2.70;;
76296;SDS011;65104;52.994;6.552;2023-02-05T11:43:27;14.25;;;2.42;;
76296;SDS011;65104;52.994;6.552;2023-02-05T11:45:56;12.38;;;3.03;;
76296;SDS011;65104;52.994;6.552;2023-02-05T11:51:12;23.23;;;3.70;;
76296;SDS011;65104;52.994;6.552;2023-02-05T11:53:49;13.82;;;2.72;;
76296;SDS011;65104;52.994;6.552;2023-02-05T11:56:20;11.93;;;3.05;;
76296;SDS011;65104;52.994;6.552;2023-02-05T11:59:01;14.65;;;2.55;;
76296;SDS011;65104;52.994;6.552;2023-02-05T12:01:31;15.73;;;2.85;;
76296;SDS011;65104;52.994;6.552;2023-02-05T12:03:59;15.60;;;2.88;;
76296;SDS011;65104;52.994;6.552;2023-02-05T12:06:28;16.33;;;3.20;;
76296;SDS011;65104;52.994;6.552;2023-02-05T12:08:59;11.52;;;2.47;;
76296;SDS011;65104;52.994;6.552;2023-02-05T12:14:29;11.60;;;2.72;;
76296;SDS011;65104;52.994;6.552;2023-02-05T12:25:25;14.95;;;3.05;;
76296;SDS011;65104;52.994;6.552;2023-02-05T12:30:58;12.82;;;2.47;;
76296;SDS011;65104;52.994;6.552;2023-02-05T12:39:19;8.75;;;2.55;;
76296;SDS011;65104;52.994;6.552;2023-02-05T12:54:44;18.85;;;2.92;;
76296;SDS011;65104;52.994;6.552;2023-02-05T12:57:18;15.85;;;2.65;;
76296;SDS011;65104;52.994;6.552;2023-02-05T13:00:02;17.40;;;2.70;;
76296;SDS011;65104;52.994;6.552;2023-02-05T13:05:16;14.80;;;2.53;;
76296;SDS011;65104;52.994;6.552;2023-02-05T13:07:47;9.80;;;2.20;;
76296;SDS011;65104;52.994;6.552;2023-02-05T13:13:02;14.55;;;3.45;;
76296;SDS011;65104;52.994;6.552;2023-02-05T13:15:38;16.63;;;2.47;;
76296;SDS011;65104;52.994;6.552;2023-02-05T13:21:06;18.23;;;2.67;;
76296;SDS011;65104;52.994;6.552;2023-02-05T13:24:01;13.30;;;2.70;;
76296;SDS011;65104;52.994;6.552;2023-02-05T13:27:04;16.98;;;2.85;;
76296;SDS011;65104;52.994;6.552;2023-02-05T13:30:00;8.43;;;2.50;;
76296;SDS011;65104;52.994;6.552;2023-02-05T13:32:27;13.15;;;2.40;;
76296;SDS011;65104;52.994;6.552;2023-02-05T13:34:58;13.27;;;2.28;;
76296;SDS011;65104;52.994;6.552;2023-02-05T13:39:56;9.95;;;2.33;;
76296;SDS011;65104;52.994;6.552;2023-02-05T13:48:25;12.80;;;3.05;;
76296;SDS011;65104;52.994;6.552;2023-02-05T13:59:18;17.80;;;3.03;;
76296;SDS011;65104;52.994;6.552;2023-02-05T14:01:55;13.23;;;2.58;;
76296;SDS011;65104;52.994;6.552;2023-02-05T14:04:29;10.75;;;2.30;;
76296;SDS011;65104;52.994;6.552;2023-02-05T14:07:06;12.60;;;2.70;;
76296;SDS011;65104;52.994;6.552;2023-02-05T14:09:50;10.13;;;2.30;;
76296;SDS011;65104;52.994;6.552;2023-02-05T14:12:24;13.38;;;2.90;;
76296;SDS011;65104;52.994;6.552;2023-02-05T14:22:53;12.85;;;2.65;;
76296;SDS011;65104;52.994;6.552;2023-02-05T14:28:02;16.33;;;3.42;;
76296;SDS011;65104;52.994;6.552;2023-02-05T14:38:55;21.05;;;3.03;;
76296;SDS011;65104;52.994;6.552;2023-02-05T14:51:59;17.02;;;3.47;;
76296;SDS011;65104;52.994;6.552;2023-02-05T14:54:31;13.93;;;3.53;;
76296;SDS011;65104;52.994;6.552;2023-02-05T14:57:13;19.95;;;4.85;;
76296;SDS011;65104;52.994;6.552;2023-02-05T15:05:28;13.73;;;3.30;;
76296;SDS011;65104;52.994;6.552;2023-02-05T15:19:29;17.08;;;4.07;;
76296;SDS011;65104;52.994;6.552;2023-02-05T15:21:57;14.02;;;3.10;;
76296;SDS011;65104;52.994;6.552;2023-02-05T15:24:27;18.77;;;3.72;;
76296;SDS011;65104;52.994;6.552;2023-02-05T15:26:58;20.42;;;3.38;;
76296;SDS011;65104;52.994;6.552;2023-02-05T15:32:00;17.20;;;3.05;;
76296;SDS011;65104;52.994;6.552;2023-02-05T15:34:35;14.43;;;3.10;;
76296;SDS011;65104;52.994;6.552;2023-02-05T15:37:05;21.30;;;3.53;;
76296;SDS011;65104;52.994;6.552;2023-02-05T15:39:35;23.42;;;4.35;;
76296;SDS011;65104;52.994;6.552;2023-02-05T15:42:40;16.75;;;3.35;;
76296;SDS011;65104;52.994;6.552;2023-02-05T15:47:56;14.32;;;3.38;;
76296;SDS011;65104;52.994;6.552;2023-02-05T15:50:26;16.38;;;4.55;;
76296;SDS011;65104;52.994;6.552;2023-02-05T15:52:53;20.55;;;3.78;;
76296;SDS011;65104;52.994;6.552;2023-02-05T15:55:20;16.52;;;3.22;;
76296;SDS011;65104;52.994;6.552;2023-02-05T15:57:49;17.95;;;6.38;;
76296;SDS011;65104;52.994;6.552;2023-02-05T16:00:22;21.20;;;4.85;;
76296;SDS011;65104;52.994;6.552;2023-02-05T16:02:51;18.25;;;3.70;;
76296;SDS011;65104;52.994;6.552;2023-02-05T16:05:19;19.92;;;4.05;;
76296;SDS011;65104;52.994;6.552;2023-02-05T16:07:47;24.85;;;6.55;;
76296;SDS011;65104;52.994;6.552;2023-02-05T16:10:23;24.58;;;7.10;;
76296;SDS011;65104;52.994;6.552;2023-02-05T16:12:58;20.08;;;5.55;;
76296;SDS011;65104;52.994;6.552;2023-02-05T16:15:26;16.80;;;4.82;;
76296;SDS011;65104;52.994;6.552;2023-02-05T16:17:57;18.25;;;4.82;;
76296;SDS011;65104;52.994;6.552;2023-02-05T16:20:26;20.83;;;5.68;;
76296;SDS011;65104;52.994;6.552;2023-02-05T16:22:55;19.70;;;5.15;;
76296;SDS011;65104;52.994;6.552;2023-02-05T16:26:01;27.42;;;11.23;;
76296;SDS011;65104;52.994;6.552;2023-02-05T16:28:34;23.55;;;4.20;;
76296;SDS011;65104;52.994;6.552;2023-02-05T16:31:07;20.95;;;3.83;;
76296;SDS011;65104;52.994;6.552;2023-02-05T16:33:43;22.85;;;5.07;;
76296;SDS011;65104;52.994;6.552;2023-02-05T16:36:17;21.00;;;3.38;;
76296;SDS011;65104;52.994;6.552;2023-02-05T16:38:49;21.17;;;4.38;;
76296;SDS011;65104;52.994;6.552;2023-02-05T16:41:28;15.43;;;2.83;;
76296;SDS011;65104;52.994;6.552;2023-02-05T16:46:25;12.60;;;3.25;;
76296;SDS011;65104;52.994;6.552;2023-02-05T16:48:55;12.75;;;2.85;;
76296;SDS011;65104;52.994;6.552;2023-02-05T16:56:34;20.65;;;4.07;;
76296;SDS011;65104;52.994;6.552;2023-02-05T16:59:03;21.13;;;3.58;;
76296;SDS011;65104;52.994;6.552;2023-02-05T17:01:39;17.23;;;3.05;;
76296;SDS011;65104;52.994;6.552;2023-02-05T17:04:16;23.27;;;4.68;;
76296;SDS011;65104;52.994;6.552;2023-02-05T17:06:51;21.20;;;5.18;;
76296;SDS011;65104;52.994;6.552;2023-02-05T17:09:37;23.05;;;8.10;;
76296;SDS011;65104;52.994;6.552;2023-02-05T17:17:27;20.33;;;3.72;;
76296;SDS011;65104;52.994;6.552;2023-02-05T17:25:28;16.60;;;3.20;;
76296;SDS011;65104;52.994;6.552;2023-02-05T17:28:09;21.23;;;4.72;;
76296;SDS011;65104;52.994;6.552;2023-02-05T17:30:39;20.58;;;4.22;;
76296;SDS011;65104;52.994;6.552;2023-02-05T17:33:12;17.90;;;3.78;;
76296;SDS011;65104;52.994;6.552;2023-02-05T17:35:41;12.55;;;4.18;;
76296;SDS011;65104;52.994;6.552;2023-02-05T17:38:06;18.33;;;3.28;;
76296;SDS011;65104;52.994;6.552;2023-02-05T17:40:32;24.50;;;4.75;;
76296;SDS011;65104;52.994;6.552;2023-02-05T17:42:57;17.42;;;4.03;;
76296;SDS011;65104;52.994;6.552;2023-02-05T17:45:24;12.60;;;3.53;;
76296;SDS011;65104;52.994;6.552;2023-02-05T17:47:51;16.25;;;3.60;;
76296;SDS011;65104;52.994;6.552;2023-02-05T17:50:17;20.17;;;3.55;;
76296;SDS011;65104;52.994;6.552;2023-02-05T17:52:43;20.13;;;3.55;;
76296;SDS011;65104;52.994;6.552;2023-02-05T17:55:10;19.85;;;4.38;;
76296;SDS011;65104;52.994;6.552;2023-02-05T17:57:39;12.10;;;2.83;;
76296;SDS011;65104;52.994;6.552;2023-02-05T18:00:10;22.02;;;3.72;;
76296;SDS011;65104;52.994;6.552;2023-02-05T18:02:45;19.52;;;3.83;;
76296;SDS011;65104;52.994;6.552;2023-02-05T18:05:11;14.23;;;3.63;;
76296;SDS011;65104;52.994;6.552;2023-02-05T18:07:38;17.08;;;3.25;;
76296;SDS011;65104;52.994;6.552;2023-02-05T18:10:20;20.58;;;3.63;;
76296;SDS011;65104;52.994;6.552;2023-02-05T18:12:47;12.65;;;2.97;;
76296;SDS011;65104;52.994;6.552;2023-02-05T18:15:14;16.13;;;3.45;;